Barbarossa — IBJD — position and weather

sailwx.info

Track history (hours):
 
Tides and Currents Weather Stations Pressure Air Temp Water Temp Dewpoint Dewpoint Depression Visibility Wind Speed Wind Dir Waves Ship Positions

Barbarossa

Last reported at 2018-May-27 15:30 UTC. Time now 2018-May-27 15:57 UTC.
Position N 45°26' E 012°20'.

Length 294 m; draft 8.1 m.

Type: Ship. MMSI: 247282900.

Date/timePositionNaut miles runAvg speedWind from/ knotsBaromVisibWave heightAir tempDewpointWater temp
2018-May-27 15:30N 45°26' E 012°20'1 1.8
2018-May-27 15:01N 45°26' E 012°19'0 0.0
2018-May-27 14:30N 45°26' E 012°19'0 0.0
2018-May-27 14:00N 45°26' E 012°19'0 0.0
2018-May-27 13:29N 45°26' E 012°19'0 0.0
2018-May-27 13:00N 45°26' E 012°19'0 0.0
2018-May-27 12:30N 45°26' E 012°19'0 0.0
2018-May-27 11:59N 45°26' E 012°19'0 0.0
2018-May-27 11:31N 45°26' E 012°19'2 4.2
2018-May-27 11:00N 45°24' E 012°18'273.8 100 1019.0 5.4 26.024.623.0
2018-May-27 10:58N 45°26' E 012°19'0 0.0
2018-May-27 10:28N 45°26' E 012°19'182386.1
2018-May-27 10:00N 42°24' E 012°18'1826244.3 190 / 31018.0 5.4 26.024.624.0
2018-May-27 09:58N 45°26' E 012°19'0 0.0
2018-May-27 09:28N 45°26' E 012°19'0 0.0
2018-May-27 08:58N 45°26' E 012°19'0 0.0
2018-May-27 08:30N 45°26' E 012°19'0 0.0
2018-May-27 08:00N 45°26' E 012°19'0 0.0
2018-May-27 07:30N 45°26' E 012°19'0 0.0
2018-May-27 07:00N 45°26' E 012°19'1 1.4
2018-May-27 06:30N 45°26' E 012°19'2 4.7
2018-May-27 06:00N 45°26' E 012°23'4 8.5
2018-May-27 05:30N 45°24' E 012°28'612.1
2018-May-27 05:00N 45°19' E 012°32'814.9
2018-May-27 04:30N 45°13' E 012°39'815.7
2018-May-27 04:00N 45°08' E 012°48'815.8
2018-May-27 03:30N 45°01' E 012°53'815.8
2018-May-27 03:01N 44°54' E 012°57'917.3
2018-May-27 02:30N 44°46' E 013°03'918.5
2018-May-27 02:00N 44°37' E 013°06'918.4
2018-May-27 01:30N 44°29' E 013°10'918.6
2018-May-27 01:00N 44°20' E 013°14'81127.9
2018-May-27 01:00N 44°12' E 013°18'3014.9 1016.010.8 24.021.124.0
2018-May-26 22:59N 43°56' E 013°54'3718.7
2018-May-26 21:00N 43°30' E 014°30'8917.7 310 / 111018.010.8 23.021.623.0
2018-May-26 16:00N 42°42' E 016°12'4514.8 310 / 191017.0
2018-May-26 13:00N 42°36' E 017°12'35 5.9 270 / 191017.010.8 25.023.625.0
2018-May-26 07:00N 42°36' E 018°00'8011.4 140 / 91015.010.8 25.023.620.0
2018-May-26 00:00N 41°18' E 018°24'6312.5
2018-May-25 19:00N 40°18' E 018°48'3912.9 360 / 181013.010.8 23.021.622.0
2018-May-25 16:00N 39°42' E 019°06'15215.2 350 / 221012.0
2018-May-25 06:00N 37°30' E 020°42'13612.3 340 / 131013.010.8 23.021.622.0
2018-May-24 19:00N 36°36' E 023°18'6416.8 350 / 71012.010.8 20.018.523.0
2018-May-24 15:10N 37°37' E 023°42'214.9
2018-May-24 15:00N 37°40' E 023°42'815.3
2018-May-24 14:30N 37°47' E 023°38'714.6
2018-May-24 14:00N 37°54' E 023°37'2 4.8
2018-May-24 13:31N 37°56' E 023°37'0 0.0
2018-May-24 08:59N 37°56' E 023°37'0 0.0
2018-May-24 08:29N 37°56' E 023°37'3 5.2
2018-May-24 08:00N 37°54' E 023°36'3153.0 190 / 51013.0 5.4 25.023.622.0
2018-May-24 07:59N 37°56' E 023°37'0 0.0
2018-May-24 07:29N 37°56' E 023°37'0 0.0
2018-May-24 06:59N 37°56' E 023°37'0 0.0
2018-May-24 06:29N 37°56' E 023°37'0 0.0
2018-May-24 05:59N 37°56' E 023°37'0 0.0
2018-May-24 05:29N 37°56' E 023°37'0 0.0
2018-May-24 04:59N 37°56' E 023°37'0 0.0
2018-May-24 04:29N 37°56' E 023°37'0 0.0
2018-May-24 03:59N 37°56' E 023°37'0 0.1
2018-May-24 03:31N 37°56' E 023°37'2 3.2
2018-May-24 03:01N 37°55' E 023°36'510.6
2018-May-24 02:30N 37°50' E 023°40'714.4
2018-May-24 02:00N 37°44' E 023°43'714.5
2018-May-24 01:30N 37°37' E 023°46'714.3
2018-May-24 01:00N 37°30' E 023°49'1818.1
2018-May-24 00:00N 37°12' E 023°54'321.3 220 / 21015.0 5.4 24.019.622.0
2018-May-23 23:51N 37°15' E 023°55'7112.1
2018-May-23 18:00N 36°18' E 024°48'29 2.4 080 / 81013.010.8 25.023.623.0
2018-May-23 06:00N 36°18' E 024°12'9716.1 060 / 151017.010.8 22.020.522.0
2018-May-23 00:00N 36°24' E 022°12'10918.1 090 / 301015.0 5.4 20.016.922.0
2018-May-22 18:00N 37°36' E 020°30'6822.5 140 / 71015.0 24.021.123.0
2018-May-22 15:00N 38°42' E 020°12'56 7.0 290 / 131015.0 5.4
2018-May-22 07:00N 39°36' E 019°54'20 5.1 030 / 11014.010.8 22.019.022.0
2018-May-22 03:00N 39°54' E 019°42'5117.0 160 / 61014.0
2018-May-22 00:00N 40°24' E 018°48'7318.3 060 / 51013.0 5.4 20.015.322.0
2018-May-21 20:00N 41°00' E 017°24'47 4.3 340 / 31013.010.8 22.020.522.0
2018-May-21 09:00N 41°30' E 016°36'15018.7 260 / 51013.010.8 21.019.521.0
2018-May-21 01:00N 43°24' E 014°24'6617.0 030 / 91015.0 5.4 21.0
2018-May-20 21:06N 44°09' E 013°17'218.8
2018-May-20 21:00N 44°10' E 013°15'7418.9
2018-May-20 21:00N 44°12' E 013°06'1415.7 070 / 101015.010.8 23.021.622.0
2018-May-20 20:08N 44°26' E 013°05'219.9
2018-May-20 20:00N 44°28' E 013°05'1019.3
2018-May-20 19:30N 44°37' E 013°01'918.9
2018-May-20 19:00N 44°46' E 012°57'1018.9
2018-May-20 18:30N 44°55' E 012°51'919.1
2018-May-20 18:00N 45°03' E 012°45'918.2
2018-May-20 17:30N 45°09' E 012°35'917.1
2018-May-20 17:00N 45°17' E 012°30'815.9
2018-May-20 16:30N 45°25' E 012°27'3 6.8
2018-May-20 16:00N 45°26' E 012°23'2 4.8
2018-May-20 15:30N 45°26' E 012°19'1 1.2
2018-May-20 14:59N 45°26' E 012°19'0 0.0
2018-May-20 14:29N 45°26' E 012°19'0 0.0
2018-May-20 13:59N 45°26' E 012°19'0 0.0
2018-May-20 13:29N 45°26' E 012°19'0 0.0
2018-May-20 12:59N 45°26' E 012°19'0 0.0
2018-May-20 12:29N 45°26' E 012°19'0 0.0
2018-May-20 11:58N 45°26' E 012°19'0 0.0
2018-May-20 11:28N 45°26' E 012°19'0 0.0
2018-May-20 10:58N 45°26' E 012°19'0 0.0
2018-May-20 10:28N 45°26' E 012°19'0 0.0
2018-May-20 09:58N 45°26' E 012°19'0 0.0
2018-May-20 09:28N 45°26' E 012°19'0 0.0
2018-May-20 08:58N 45°26' E 012°19'0 0.0
2018-May-20 08:28N 45°26' E 012°19'2 4.6
2018-May-20 08:00N 45°24' E 012°18'268.2 040 / 151017.010.8 23.021.622.0
2018-May-20 07:58N 45°26' E 012°19'0 0.0
2018-May-20 07:28N 45°26' E 012°19'0 0.0
2018-May-20 07:00N 45°26' E 012°19'0 0.0
2018-May-20 06:29N 45°26' E 012°19'0 0.0
2018-May-20 06:00N 45°26' E 012°19'1 1.7
2018-May-20 05:30N 45°26' E 012°20'2 4.7
2018-May-20 05:00N 45°26' E 012°23'4 8.4
2018-May-20 04:30N 45°24' E 012°28'713.1
2018-May-20 04:00N 45°18' E 012°32'7582.4
2018-May-20 04:00N 45°12' E 012°36'4 7.3
2018-May-20 03:31N 45°12' E 012°41'918.6
2018-May-20 03:00N 45°05' E 012°50'919.0
2018-May-20 02:30N 44°57' E 012°55'919.0
2018-May-20 02:01N 44°48' E 013°01'1019.2
2018-May-20 01:30N 44°39' E 013°05'919.0
2018-May-20 01:01N 44°30' E 013°09'6362.2
2018-May-20 01:00N 44°24' E 013°06'612.7 070 / 191015.0 5.4 21.018.021.0
2018-May-20 00:31N 44°21' E 013°13'1018.1
2018-May-19 23:57N 44°13' E 013°23'3319.0
2018-May-19 22:11N 43°53' E 014°00'5316.5
2018-May-19 19:00N 43°18' E 014°54'3635.6 340 / 181014.010.8 20.016.921.0
2018-May-19 18:00N 42°54' E 015°30'8617.1 320 / 191013.0
2018-May-19 13:00N 42°36' E 017°24'27 3.0 290 / 191014.0 5.4 22.015.823.0
2018-May-19 04:00N 42°30' E 018°00'13114.6 030 / 131012.0
2018-May-18 19:00N 40°24' E 018°48'5714.3 060 / 251012.010.8 25.023.620.0
2018-May-18 15:00N 39°30' E 019°12'13915.5 020 / 241013.0
2018-May-18 06:00N 37°30' E 020°42'4615.3 030 / 91014.010.8 21.018.022.0
2018-May-18 03:00N 36°54' E 021°18'5317.6 050 / 91015.0
2018-May-18 00:00N 36°24' E 022°12'4812.1 120 / 131014.0 5.4 19.015.920.0
2018-May-17 20:00N 36°24' E 023°12'4518.9 120 / 81016.010.8 24.022.621.0
2018-May-17 17:38N 37°06' E 023°32'518.1
2018-May-17 17:21N 37°10' E 023°36'618.2
2018-May-17 17:00N 37°15' E 023°40'1017.0
2018-May-17 16:26N 37°24' E 023°43'817.6
2018-May-17 16:01N 37°31' E 023°41'4258.3
2018-May-17 16:00N 37°30' E 023°36'1122.7 170 / 161015.0
2018-May-17 15:31N 37°40' E 023°42'  
Track history (hours):
 
Tides and Currents Weather Stations Pressure Air Temp Water Temp Dewpoint Dewpoint Depression Visibility Wind Speed Wind Dir Waves Ship Positions

Barbarossa

Last reported at 2018-May-27 15:30 UTC. Time now 2018-May-27 15:57 UTC.
Position N 45°26' E 012°20'.

Length 294 m; draft 8.1 m.

Type: Ship. MMSI: 247282900.

Date/timePositionNaut miles runAvg speedWind from/ knotsBaromVisibWave heightAir tempDewpointWater temp
2018-May-27 15:30N 45°26' E 012°20'1 1.8
2018-May-27 15:01N 45°26' E 012°19'0 0.0
2018-May-27 14:30N 45°26' E 012°19'0 0.0
2018-May-27 14:00N 45°26' E 012°19'0 0.0
2018-May-27 13:29N 45°26' E 012°19'0 0.0
2018-May-27 13:00N 45°26' E 012°19'0 0.0
2018-May-27 12:30N 45°26' E 012°19'0 0.0
2018-May-27 11:59N 45°26' E 012°19'0 0.0
2018-May-27 11:31N 45°26' E 012°19'2 4.2
2018-May-27 11:00N 45°24' E 012°18'273.8 100 1019.0 5.4 26.024.623.0
2018-May-27 10:58N 45°26' E 012°19'0 0.0
2018-May-27 10:28N 45°26' E 012°19'182386.1
2018-May-27 10:00N 42°24' E 012°18'1826244.3 190 / 31018.0 5.4 26.024.624.0
2018-May-27 09:58N 45°26' E 012°19'0 0.0
2018-May-27 09:28N 45°26' E 012°19'0 0.0
2018-May-27 08:58N 45°26' E 012°19'0 0.0
2018-May-27 08:30N 45°26' E 012°19'0 0.0
2018-May-27 08:00N 45°26' E 012°19'0 0.0
2018-May-27 07:30N 45°26' E 012°19'0 0.0
2018-May-27 07:00N 45°26' E 012°19'1 1.4
2018-May-27 06:30N 45°26' E 012°19'2 4.7
2018-May-27 06:00N 45°26' E 012°23'4 8.5
2018-May-27 05:30N 45°24' E 012°28'612.1
2018-May-27 05:00N 45°19' E 012°32'814.9
2018-May-27 04:30N 45°13' E 012°39'815.7
2018-May-27 04:00N 45°08' E 012°48'815.8
2018-May-27 03:30N 45°01' E 012°53'815.8
2018-May-27 03:01N 44°54' E 012°57'917.3
2018-May-27 02:30N 44°46' E 013°03'918.5
2018-May-27 02:00N 44°37' E 013°06'918.4
2018-May-27 01:30N 44°29' E 013°10'918.6
2018-May-27 01:00N 44°20' E 013°14'81127.9
2018-May-27 01:00N 44°12' E 013°18'3014.9 1016.010.8 24.021.124.0
2018-May-26 22:59N 43°56' E 013°54'3718.7
2018-May-26 21:00N 43°30' E 014°30'8917.7 310 / 111018.010.8 23.021.623.0
2018-May-26 16:00N 42°42' E 016°12'4514.8 310 / 191017.0
2018-May-26 13:00N 42°36' E 017°12'35 5.9 270 / 191017.010.8 25.023.625.0
2018-May-26 07:00N 42°36' E 018°00'8011.4 140 / 91015.010.8 25.023.620.0
2018-May-26 00:00N 41°18' E 018°24'6312.5
2018-May-25 19:00N 40°18' E 018°48'3912.9 360 / 181013.010.8 23.021.622.0
2018-May-25 16:00N 39°42' E 019°06'15215.2 350 / 221012.0
2018-May-25 06:00N 37°30' E 020°42'13612.3 340 / 131013.010.8 23.021.622.0
2018-May-24 19:00N 36°36' E 023°18'6416.8 350 / 71012.010.8 20.018.523.0
2018-May-24 15:10N 37°37' E 023°42'214.9
2018-May-24 15:00N 37°40' E 023°42'815.3
2018-May-24 14:30N 37°47' E 023°38'714.6
2018-May-24 14:00N 37°54' E 023°37'2 4.8
2018-May-24 13:31N 37°56' E 023°37'0 0.0
2018-May-24 08:59N 37°56' E 023°37'0 0.0
2018-May-24 08:29N 37°56' E 023°37'3 5.2
2018-May-24 08:00N 37°54' E 023°36'3153.0 190 / 51013.0 5.4 25.023.622.0
2018-May-24 07:59N 37°56' E 023°37'0 0.0
2018-May-24 07:29N 37°56' E 023°37'0 0.0
2018-May-24 06:59N 37°56' E 023°37'0 0.0
2018-May-24 06:29N 37°56' E 023°37'0 0.0
2018-May-24 05:59N 37°56' E 023°37'0 0.0
2018-May-24 05:29N 37°56' E 023°37'0 0.0
2018-May-24 04:59N 37°56' E 023°37'0 0.0
2018-May-24 04:29N 37°56' E 023°37'0 0.0
2018-May-24 03:59N 37°56' E 023°37'0 0.1
2018-May-24 03:31N 37°56' E 023°37'2 3.2
2018-May-24 03:01N 37°55' E 023°36'510.6
2018-May-24 02:30N 37°50' E 023°40'714.4
2018-May-24 02:00N 37°44' E 023°43'714.5
2018-May-24 01:30N 37°37' E 023°46'714.3
2018-May-24 01:00N 37°30' E 023°49'1818.1
2018-May-24 00:00N 37°12' E 023°54'321.3 220 / 21015.0 5.4 24.019.622.0
2018-May-23 23:51N 37°15' E 023°55'7112.1
2018-May-23 18:00N 36°18' E 024°48'29 2.4 080 / 81013.010.8 25.023.623.0
2018-May-23 06:00N 36°18' E 024°12'9716.1 060 / 151017.010.8 22.020.522.0
2018-May-23 00:00N 36°24' E 022°12'10918.1 090 / 301015.0 5.4 20.016.922.0
2018-May-22 18:00N 37°36' E 020°30'6822.5 140 / 71015.0 24.021.123.0
2018-May-22 15:00N 38°42' E 020°12'56 7.0 290 / 131015.0 5.4
2018-May-22 07:00N 39°36' E 019°54'20 5.1 030 / 11014.010.8 22.019.022.0
2018-May-22 03:00N 39°54' E 019°42'5117.0 160 / 61014.0
2018-May-22 00:00N 40°24' E 018°48'7318.3 060 / 51013.0 5.4 20.015.322.0
2018-May-21 20:00N 41°00' E 017°24'47 4.3 340 / 31013.010.8 22.020.522.0
2018-May-21 09:00N 41°30' E 016°36'15018.7 260 / 51013.010.8 21.019.521.0
2018-May-21 01:00N 43°24' E 014°24'6617.0 030 / 91015.0 5.4 21.0
2018-May-20 21:06N 44°09' E 013°17'218.8
2018-May-20 21:00N 44°10' E 013°15'7418.9
2018-May-20 21:00N 44°12' E 013°06'1415.7 070 / 101015.010.8 23.021.622.0
2018-May-20 20:08N 44°26' E 013°05'219.9
2018-May-20 20:00N 44°28' E 013°05'1019.3
2018-May-20 19:30N 44°37' E 013°01'918.9
2018-May-20 19:00N 44°46' E 012°57'1018.9
2018-May-20 18:30N 44°55' E 012°51'919.1
2018-May-20 18:00N 45°03' E 012°45'918.2
2018-May-20 17:30N 45°09' E 012°35'917.1
2018-May-20 17:00N 45°17' E 012°30'815.9
2018-May-20 16:30N 45°25' E 012°27'3 6.8
2018-May-20 16:00N 45°26' E 012°23'2 4.8
2018-May-20 15:30N 45°26' E 012°19'1 1.2
2018-May-20 14:59N 45°26' E 012°19'0 0.0
2018-May-20 14:29N 45°26' E 012°19'0 0.0
2018-May-20 13:59N 45°26' E 012°19'0 0.0
2018-May-20 13:29N 45°26' E 012°19'0 0.0
2018-May-20 12:59N 45°26' E 012°19'0 0.0
2018-May-20 12:29N 45°26' E 012°19'0 0.0
2018-May-20 11:58N 45°26' E 012°19'0 0.0
2018-May-20 11:28N 45°26' E 012°19'0 0.0
2018-May-20 10:58N 45°26' E 012°19'0 0.0
2018-May-20 10:28N 45°26' E 012°19'0 0.0
2018-May-20 09:58N 45°26' E 012°19'0 0.0
2018-May-20 09:28N 45°26' E 012°19'0 0.0
2018-May-20 08:58N 45°26' E 012°19'0 0.0
2018-May-20 08:28N 45°26' E 012°19'2 4.6
2018-May-20 08:00N 45°24' E 012°18'268.2 040 / 151017.010.8 23.021.622.0
2018-May-20 07:58N 45°26' E 012°19'0 0.0
2018-May-20 07:28N 45°26' E 012°19'0 0.0
2018-May-20 07:00N 45°26' E 012°19'0 0.0
2018-May-20 06:29N 45°26' E 012°19'0 0.0
2018-May-20 06:00N 45°26' E 012°19'1 1.7
2018-May-20 05:30N 45°26' E 012°20'2 4.7
2018-May-20 05:00N 45°26' E 012°23'4 8.4
2018-May-20 04:30N 45°24' E 012°28'713.1
2018-May-20 04:00N 45°18' E 012°32'7582.4
2018-May-20 04:00N 45°12' E 012°36'4 7.3
2018-May-20 03:31N 45°12' E 012°41'918.6
2018-May-20 03:00N 45°05' E 012°50'919.0
2018-May-20 02:30N 44°57' E 012°55'919.0
2018-May-20 02:01N 44°48' E 013°01'1019.2
2018-May-20 01:30N 44°39' E 013°05'919.0
2018-May-20 01:01N 44°30' E 013°09'6362.2
2018-May-20 01:00N 44°24' E 013°06'612.7 070 / 191015.0 5.4 21.018.021.0
2018-May-20 00:31N 44°21' E 013°13'1018.1
2018-May-19 23:57N 44°13' E 013°23'3319.0
2018-May-19 22:11N 43°53' E 014°00'5316.5
2018-May-19 19:00N 43°18' E 014°54'3635.6 340 / 181014.010.8 20.016.921.0
2018-May-19 18:00N 42°54' E 015°30'8617.1 320 / 191013.0
2018-May-19 13:00N 42°36' E 017°24'27 3.0 290 / 191014.0 5.4 22.015.823.0
2018-May-19 04:00N 42°30' E 018°00'13114.6 030 / 131012.0
2018-May-18 19:00N 40°24' E 018°48'5714.3 060 / 251012.010.8 25.023.620.0
2018-May-18 15:00N 39°30' E 019°12'13915.5 020 / 241013.0
2018-May-18 06:00N 37°30' E 020°42'4615.3 030 / 91014.010.8 21.018.022.0
2018-May-18 03:00N 36°54' E 021°18'5317.6 050 / 91015.0
2018-May-18 00:00N 36°24' E 022°12'4812.1 120 / 131014.0 5.4 19.015.920.0
2018-May-17 20:00N 36°24' E 023°12'4518.9 120 / 81016.010.8 24.022.621.0
2018-May-17 17:38N 37°06' E 023°32'518.1
2018-May-17 17:21N 37°10' E 023°36'618.2
2018-May-17 17:00N 37°15' E 023°40'1017.0
2018-May-17 16:26N 37°24' E 023°43'817.6
2018-May-17 16:01N 37°31' E 023°41'4258.3
2018-May-17 16:00N 37°30' E 023°36'1122.7 170 / 161015.0
2018-May-17 15:31N 37°40' E 023°42'  

Dump ship's entire track history